createdAt,value
2017-11-01T00:00:00.090Z,3.17
2017-11-01T00:00:04.190Z,3.16
2017-11-01T00:00:08.137Z,3.16
2017-11-01T00:00:12.352Z,3.16
2017-11-01T00:00:16.585Z,3.17
2017-11-01T00:00:20.665Z,3.16
2017-11-01T00:00:24.746Z,3.16
2017-11-01T00:00:28.694Z,3.16
2017-11-01T00:00:33.199Z,3.15
2017-11-01T00:00:37.152Z,3.15
2017-11-01T00:00:40.967Z,3.14
2017-11-01T00:00:44.780Z,3.16
2017-11-01T00:00:49.009Z,3.14
2017-11-01T00:00:52.826Z,3.15
2017-11-01T00:00:56.506Z,3.15
2017-11-01T00:01:00.583Z,3.15
2017-11-01T00:01:04.535Z,3.15
2017-11-01T00:01:08.625Z,3.14
2017-11-01T00:01:12.704Z,3.14
2017-11-01T00:01:16.914Z,3.14
2017-11-01T00:01:21.004Z,3.14
2017-11-01T00:01:25.219Z,3.15
2017-11-01T00:01:29.041Z,3.13
2017-11-01T00:01:32.987Z,3.14
2017-11-01T00:01:37.069Z,3.13
2017-11-01T00:01:41.154Z,3.13
2017-11-01T00:01:44.969Z,3.13
2017-11-01T00:01:48.933Z,3.13
2017-11-01T00:01:52.744Z,3.13
2017-11-01T00:01:56.836Z,3.14
2017-11-01T00:02:01.062Z,3.13
2017-11-01T00:02:05.339Z,3.12
2017-11-01T00:02:09.158Z,3.12
2017-11-01T00:02:13.244Z,3.12
2017-11-01T00:02:17.325Z,3.12
2017-11-01T00:02:21.530Z,3.11
2017-11-01T00:02:25.887Z,3.11
2017-11-01T00:02:29.831Z,3.12
2017-11-01T00:02:33.647Z,3.12
2017-11-01T00:02:38.007Z,3.11
2017-11-01T00:02:42.355Z,3.1
2017-11-01T00:02:46.298Z,3.11
2017-11-01T00:02:50.376Z,3.11
2017-11-01T00:02:54.587Z,3.11
2017-11-01T00:02:58.797Z,3.1
2017-11-01T00:03:02.766Z,3.09
2017-11-01T00:03:07.109Z,3.1
2017-11-01T00:03:11.053Z,3.1
2017-11-01T00:03:15.139Z,3.1
2017-11-01T00:03:19.258Z,3.09
2017-11-01T00:03:23.208Z,3.09
2017-11-01T00:03:27.415Z,3.09
2017-11-01T00:03:31.367Z,3.09
2017-11-01T00:03:35.579Z,3.08
2017-11-01T00:03:39.799Z,3.08
2017-11-01T00:03:43.622Z,3.08
2017-11-01T00:03:47.309Z,3.08
2017-11-01T00:03:51.521Z,3.08
2017-11-01T00:03:55.868Z,3.08
2017-11-01T00:03:59.825Z,3.09
2017-11-01T00:04:03.919Z,3.08
2017-11-01T00:04:08.131Z,3.08
2017-11-01T00:04:12.078Z,3.07
2017-11-01T00:04:16.163Z,3.08
2017-11-01T00:04:20.241Z,3.07
2017-11-01T00:04:24.186Z,3.07
2017-11-01T00:04:28.139Z,3.07
2017-11-01T00:04:32.216Z,3.06
2017-11-01T00:04:36.423Z,3.06
2017-11-01T00:04:40.370Z,3.07
2017-11-01T00:04:44.460Z,3.06
2017-11-01T00:04:48.542Z,3.07
2017-11-01T00:04:52.756Z,3.06
2017-11-01T00:04:56.969Z,3.06
2017-11-01T00:05:01.045Z,3.07
2017-11-01T00:05:05.166Z,3.06
2017-11-01T00:05:09.257Z,3.06
2017-11-01T00:05:13.335Z,3.05
2017-11-01T00:05:17.683Z,3.05
2017-11-01T00:05:21.904Z,3.06
2017-11-01T00:05:26.255Z,3.05
2017-11-01T00:05:30.431Z,3.05
2017-11-01T00:05:34.665Z,3.05
2017-11-01T00:05:38.610Z,3.06
2017-11-01T00:05:42.684Z,3.04
2017-11-01T00:05:47.043Z,3.04
2017-11-01T00:05:50.987Z,3.05
2017-11-01T00:05:54.930Z,3.05
2017-11-01T00:05:59.025Z,3.04
2017-11-01T00:06:02.969Z,3.05
2017-11-01T00:06:06.917Z,3.04
2017-11-01T00:06:11.006Z,3.05
2017-11-01T00:06:15.086Z,3.04
2017-11-01T00:06:19.165Z,3.04
2017-11-01T00:06:22.983Z,3.04
2017-11-01T00:06:27.340Z,3.03
2017-11-01T00:06:31.550Z,3.04
2017-11-01T00:06:35.649Z,3.04
2017-11-01T00:06:39.596Z,3.04
2017-11-01T00:06:43.549Z,3.04
2017-11-01T00:06:47.634Z,3.04
2017-11-01T00:06:51.587Z,3.04
2017-11-01T00:06:55.665Z,3.03
2017-11-01T00:06:59.613Z,3.03
2017-11-01T00:07:04.208Z,3.03
2017-11-01T00:07:08.423Z,3.04
2017-11-01T00:07:12.506Z,3.03
2017-11-01T00:07:16.719Z,3.03
2017-11-01T00:07:20.544Z,3.03
2017-11-01T00:07:24.757Z,3.02
2017-11-01T00:07:28.707Z,3.03
2017-11-01T00:07:32.689Z,3.03
2017-11-01T00:07:36.372Z,3.03
2017-11-01T00:07:40.709Z,3.02
2017-11-01T00:07:44.649Z,3.02
2017-11-01T00:07:48.854Z,3.02
2017-11-01T00:07:52.802Z,3.03
2017-11-01T00:07:56.754Z,3.02
2017-11-01T00:08:00.834Z,3.01
2017-11-01T00:08:05.131Z,3.02
2017-11-01T00:08:09.513Z,3.01
2017-11-01T00:08:13.598Z,3.01
2017-11-01T00:08:17.543Z,3.01
2017-11-01T00:08:21.628Z,3.01
2017-11-01T00:08:25.704Z,3.01
2017-11-01T00:08:29.793Z,3.01
2017-11-01T00:08:33.481Z,3.01
2017-11-01T00:08:37.446Z,3.01
2017-11-01T00:08:41.651Z,3.01
2017-11-01T00:08:45.729Z,3.01
2017-11-01T00:08:49.938Z,3.01
2017-11-01T00:08:54.008Z,3.01
2017-11-01T00:08:57.820Z,3.01
2017-11-01T00:09:02.038Z,3.01
2017-11-01T00:09:06.255Z,3.01
2017-11-01T00:09:10.201Z,3
2017-11-01T00:09:14.308Z,3
2017-11-01T00:09:18.384Z,3
2017-11-01T00:09:22.466Z,3.01
2017-11-01T00:09:26.678Z,3
2017-11-01T00:09:30.625Z,3
2017-11-01T00:09:34.720Z,3
2017-11-01T00:09:38.676Z,3
2017-11-01T00:09:42.753Z,3
2017-11-01T00:09:46.971Z,3
2017-11-01T00:09:51.051Z,2.99
2017-11-01T00:09:55.392Z,3
2017-11-01T00:09:59.476Z,2.99
2017-11-01T00:10:03.557Z,3.01
2017-11-01T00:10:07.528Z,2.99
2017-11-01T00:10:11.486Z,2.99
2017-11-01T00:10:15.708Z,3
2017-11-01T00:10:19.666Z,2.99
2017-11-01T00:10:23.742Z,2.99
2017-11-01T00:10:27.819Z,3
2017-11-01T00:10:31.900Z,2.99
2017-11-01T00:10:35.849Z,2.99
2017-11-01T00:10:39.661Z,2.99
2017-11-01T00:10:43.607Z,3
2017-11-01T00:10:47.418Z,2.99
2017-11-01T00:10:51.382Z,3
2017-11-01T00:10:55.592Z,2.99
2017-11-01T00:10:59.667Z,2.99
2017-11-01T00:11:04.167Z,2.99
2017-11-01T00:11:08.407Z,2.99
2017-11-01T00:11:12.486Z,2.99
2017-11-01T00:11:16.172Z,2.98
2017-11-01T00:11:20.244Z,2.98
2017-11-01T00:11:24.183Z,2.98
2017-11-01T00:11:28.137Z,3
2017-11-01T00:11:32.084Z,2.99
2017-11-01T00:11:36.168Z,2.99
2017-11-01T00:11:40.373Z,2.97
2017-11-01T00:11:44.188Z,2.98
2017-11-01T00:11:48.427Z,2.97
2017-11-01T00:11:52.505Z,2.99
2017-11-01T00:11:56.457Z,2.98
2017-11-01T00:12:00.546Z,2.99
2017-11-01T00:12:04.492Z,2.98
2017-11-01T00:12:08.715Z,2.98
2017-11-01T00:12:12.791Z,2.98
2017-11-01T00:12:16.745Z,2.98
2017-11-01T00:12:20.686Z,2.99
2017-11-01T00:12:24.634Z,2.98
2017-11-01T00:12:28.712Z,2.98
2017-11-01T00:12:32.658Z,2.98
2017-11-01T00:12:37.010Z,2.98
2017-11-01T00:12:40.957Z,2.97
2017-11-01T00:12:45.042Z,2.98
2017-11-01T00:12:49.391Z,2.99
2017-11-01T00:12:53.209Z,2.97
2017-11-01T00:12:56.891Z,2.97
2017-11-01T00:13:00.847Z,2.98
2017-11-01T00:13:04.935Z,2.97
2017-11-01T00:13:09.016Z,2.98
2017-11-01T00:13:12.959Z,2.97
2017-11-01T00:13:16.776Z,2.97
2017-11-01T00:13:20.462Z,2.96
2017-11-01T00:13:24.272Z,2.98
2017-11-01T00:13:28.351Z,2.98
2017-11-01T00:13:32.311Z,2.98
2017-11-01T00:13:36.391Z,2.98
2017-11-01T00:13:40.207Z,2.97
2017-11-01T00:13:44.149Z,2.97
2017-11-01T00:13:48.089Z,2.98
2017-11-01T00:13:52.040Z,2.97
2017-11-01T00:13:56.127Z,2.97
2017-11-01T00:14:00.066Z,2.97
2017-11-01T00:14:04.620Z,2.97
2017-11-01T00:14:08.718Z,2.97
2017-11-01T00:14:12.646Z,2.97
2017-11-01T00:14:16.724Z,2.97
2017-11-01T00:14:20.938Z,2.96
2017-11-01T00:14:24.757Z,2.97
2017-11-01T00:14:28.706Z,2.97
2017-11-01T00:14:32.919Z,2.97
2017-11-01T00:14:36.867Z,2.96
2017-11-01T00:14:40.944Z,2.96
2017-11-01T00:14:45.018Z,2.97
2017-11-01T00:14:49.233Z,2.97
2017-11-01T00:14:53.044Z,2.97
2017-11-01T00:14:57.122Z,2.97
2017-11-01T00:15:01.220Z,2.97
2017-11-01T00:15:05.581Z,2.96
2017-11-01T00:15:09.930Z,2.97
2017-11-01T00:15:13.745Z,2.97
2017-11-01T00:15:17.825Z,2.96
2017-11-01T00:15:21.772Z,2.97
2017-11-01T00:15:26.132Z,2.97
2017-11-01T00:15:30.211Z,2.96
2017-11-01T00:15:34.018Z,2.97
2017-11-01T00:15:38.100Z,2.97
2017-11-01T00:15:42.178Z,2.98
2017-11-01T00:15:46.121Z,2.97
2017-11-01T00:15:50.066Z,2.96
2017-11-01T00:15:53.878Z,2.96
2017-11-01T00:15:57.959Z,2.97
2017-11-01T00:16:01.951Z,2.97
2017-11-01T00:16:06.173Z,2.97
2017-11-01T00:16:10.387Z,2.97
2017-11-01T00:16:14.600Z,2.97
2017-11-01T00:16:18.685Z,2.96
2017-11-01T00:16:22.891Z,2.96
2017-11-01T00:16:26.966Z,2.97
2017-11-01T00:16:31.057Z,2.96
2017-11-01T00:16:35.141Z,2.96
2017-11-01T00:16:39.216Z,2.96
2017-11-01T00:16:43.170Z,2.97
2017-11-01T00:16:47.524Z,2.97
2017-11-01T00:16:51.611Z,2.96
2017-11-01T00:16:55.562Z,2.97
2017-11-01T00:16:59.653Z,2.97
2017-11-01T00:17:03.896Z,2.95
2017-11-01T00:17:08.122Z,2.96
2017-11-01T00:17:12.341Z,2.96
2017-11-01T00:17:16.418Z,2.97
2017-11-01T00:17:20.370Z,2.97
2017-11-01T00:17:24.585Z,2.97
2017-11-01T00:17:28.928Z,2.97
2017-11-01T00:17:32.878Z,2.96
2017-11-01T00:17:36.962Z,2.96
2017-11-01T00:17:41.040Z,2.96
2017-11-01T00:17:45.247Z,2.96
2017-11-01T00:17:49.463Z,2.97
2017-11-01T00:17:53.539Z,2.97
2017-11-01T00:17:57.618Z,2.96
2017-11-01T00:18:01.822Z,2.97
2017-11-01T00:18:05.901Z,2.96
2017-11-01T00:18:10.117Z,2.96
2017-11-01T00:18:14.061Z,2.97
2017-11-01T00:18:18.285Z,2.96
2017-11-01T00:18:21.965Z,2.97
2017-11-01T00:18:25.923Z,2.96
2017-11-01T00:18:29.875Z,2.96
2017-11-01T00:18:33.692Z,2.97
2017-11-01T00:18:37.774Z,2.97
2017-11-01T00:18:41.724Z,2.97
2017-11-01T00:18:45.664Z,2.96
2017-11-01T00:18:49.606Z,2.97
2017-11-01T00:18:53.552Z,2.97
2017-11-01T00:18:57.778Z,2.96
2017-11-01T00:19:01.921Z,2.97
2017-11-01T00:19:06.266Z,2.96
2017-11-01T00:19:10.485Z,2.97
2017-11-01T00:19:14.693Z,2.97
2017-11-01T00:19:18.510Z,2.97
2017-11-01T00:19:22.329Z,2.97
2017-11-01T00:19:26.147Z,2.97
2017-11-01T00:19:30.362Z,2.97
2017-11-01T00:19:34.446Z,2.97
2017-11-01T00:19:38.521Z,2.97
2017-11-01T00:19:42.468Z,2.97
2017-11-01T00:19:46.556Z,2.97
2017-11-01T00:19:50.634Z,2.96
2017-11-01T00:19:54.839Z,2.98
2017-11-01T00:19:58.784Z,2.97
2017-11-01T00:20:03.046Z,2.98
2017-11-01T00:20:07.261Z,2.97
2017-11-01T00:20:11.473Z,2.97
2017-11-01T00:20:15.696Z,2.98
2017-11-01T00:20:20.029Z,2.98
2017-11-01T00:20:23.970Z,2.97
2017-11-01T00:20:28.322Z,2.98
2017-11-01T00:20:32.141Z,2.98
2017-11-01T00:20:36.404Z,2.98
2017-11-01T00:20:40.216Z,2.98
2017-11-01T00:20:44.568Z,2.98
2017-11-01T00:20:48.519Z,2.98
2017-11-01T00:20:52.466Z,2.98
2017-11-01T00:20:56.542Z,2.98
2017-11-01T00:21:01.021Z,2.98
2017-11-01T00:21:05.271Z,2.99
2017-11-01T00:21:09.616Z,2.98
2017-11-01T00:21:13.696Z,2.99
2017-11-01T00:21:17.788Z,2.98
2017-11-01T00:21:21.999Z,2.98
2017-11-01T00:21:25.822Z,2.99
2017-11-01T00:21:30.038Z,2.99
2017-11-01T00:21:34.126Z,2.99
2017-11-01T00:21:38.329Z,2.99
2017-11-01T00:21:42.275Z,2.99
2017-11-01T00:21:46.487Z,3
2017-11-01T00:21:50.555Z,2.99
2017-11-01T00:21:54.914Z,2.99
2017-11-01T00:21:58.995Z,2.99
2017-11-01T00:22:02.945Z,2.99
2017-11-01T00:22:07.028Z,3
2017-11-01T00:22:11.240Z,3.01
2017-11-01T00:22:15.184Z,3
2017-11-01T00:22:19.132Z,3
2017-11-01T00:22:23.376Z,2.99
2017-11-01T00:22:27.443Z,3
2017-11-01T00:22:31.524Z,3.01
2017-11-01T00:22:35.998Z,3
2017-11-01T00:22:40.077Z,3.01
2017-11-01T00:22:44.297Z,3.01
2017-11-01T00:22:48.380Z,3
2017-11-01T00:22:52.326Z,3.01
2017-11-01T00:22:56.271Z,3
2017-11-01T00:23:00.484Z,3
2017-11-01T00:23:04.877Z,3.01
2017-11-01T00:23:08.954Z,3
2017-11-01T00:23:12.904Z,3.01
2017-11-01T00:23:16.851Z,3
2017-11-01T00:23:20.930Z,3.01
2017-11-01T00:23:24.876Z,3.01
2017-11-01T00:23:28.947Z,3.01
2017-11-01T00:23:33.030Z,3.02
2017-11-01T00:23:37.113Z,3.01
2017-11-01T00:23:41.058Z,3.01
2017-11-01T00:23:45.146Z,3.02
2017-11-01T00:23:49.097Z,3.02
2017-11-01T00:23:53.041Z,3.02
2017-11-01T00:23:57.257Z,3.02
2017-11-01T00:24:01.461Z,3.03
2017-11-01T00:24:05.890Z,3.03
2017-11-01T00:24:09.969Z,3.02
2017-11-01T00:24:13.916Z,3.03
2017-11-01T00:24:17.874Z,3.03
2017-11-01T00:24:21.820Z,3.03
2017-11-01T00:24:25.907Z,3.03
2017-11-01T00:24:30.261Z,3.03
2017-11-01T00:24:34.468Z,3.04
2017-11-01T00:24:38.417Z,3.02
2017-11-01T00:24:42.233Z,3.03
2017-11-01T00:24:46.438Z,3.03
2017-11-01T00:24:50.259Z,3.04
2017-11-01T00:24:54.335Z,3.03
2017-11-01T00:24:58.278Z,3.03
2017-11-01T00:25:02.510Z,3.04
2017-11-01T00:25:06.621Z,3.04
2017-11-01T00:25:10.667Z,3.04
2017-11-01T00:25:14.477Z,3.04
2017-11-01T00:25:18.432Z,3.04
2017-11-01T00:25:22.664Z,3.04
2017-11-01T00:25:27.016Z,3.05
2017-11-01T00:25:31.093Z,3.04
2017-11-01T00:25:35.161Z,3.04
2017-11-01T00:25:39.371Z,3.05
2017-11-01T00:25:43.455Z,3.04
2017-11-01T00:25:47.556Z,3.05
2017-11-01T00:25:51.639Z,3.05
2017-11-01T00:25:55.857Z,3.05
2017-11-01T00:26:00.271Z,3.05
2017-11-01T00:26:04.221Z,3.05
2017-11-01T00:26:08.312Z,3.06
2017-11-01T00:26:12.262Z,3.05
2017-11-01T00:26:16.210Z,3.06
2017-11-01T00:26:20.282Z,3.06
2017-11-01T00:26:24.236Z,3.06
2017-11-01T00:26:28.313Z,3.05
2017-11-01T00:26:32.530Z,3.07
2017-11-01T00:26:36.367Z,3.06
2017-11-01T00:26:40.029Z,3.05
2017-11-01T00:26:44.238Z,3.06
2017-11-01T00:26:48.187Z,3.06
2017-11-01T00:26:52.404Z,3.07
2017-11-01T00:26:56.611Z,3.07
2017-11-01T00:27:00.824Z,3.07
2017-11-01T00:27:05.033Z,3.06
2017-11-01T00:27:08.982Z,3.07
2017-11-01T00:27:12.931Z,3.07
2017-11-01T00:27:16.745Z,3.07
2017-11-01T00:27:20.952Z,3.07
2017-11-01T00:27:25.034Z,3.07
2017-11-01T00:27:28.986Z,3.08
2017-11-01T00:27:33.055Z,3.07
2017-11-01T00:27:36.870Z,3.09
2017-11-01T00:27:40.709Z,3.08
2017-11-01T00:27:44.502Z,3.08
2017-11-01T00:27:48.844Z,3.08
2017-11-01T00:27:52.788Z,3.08
2017-11-01T00:27:57.137Z,3.08
2017-11-01T00:28:01.348Z,3.09
2017-11-01T00:28:05.298Z,3.09
2017-11-01T00:28:09.376Z,3.09
2017-11-01T00:28:13.585Z,3.09
2017-11-01T00:28:17.660Z,3.09
2017-11-01T00:28:21.618Z,3.1
2017-11-01T00:28:25.824Z,3.09
2017-11-01T00:28:29.906Z,3.1
2017-11-01T00:28:34.115Z,3.1
2017-11-01T00:28:38.193Z,3.1
2017-11-01T00:28:42.011Z,3.1
2017-11-01T00:28:46.261Z,3.1
2017-11-01T00:28:50.331Z,3.1
2017-11-01T00:28:54.668Z,3.11
2017-11-01T00:28:58.749Z,3.11
2017-11-01T00:29:02.483Z,3.12
2017-11-01T00:29:06.307Z,3.12
2017-11-01T00:29:10.261Z,3.12
2017-11-01T00:29:14.737Z,3.12
2017-11-01T00:29:18.944Z,3.12
2017-11-01T00:29:22.892Z,3.13
2017-11-01T00:29:26.977Z,3.12
2017-11-01T00:29:30.926Z,3.13
2017-11-01T00:29:34.885Z,3.12
2017-11-01T00:29:38.831Z,3.13
2017-11-01T00:29:42.779Z,3.13
2017-11-01T00:29:46.853Z,3.14
2017-11-01T00:29:50.941Z,3.13
2017-11-01T00:29:55.019Z,3.14
2017-11-01T00:29:58.973Z,3.13
2017-11-01T00:30:03.317Z,3.13
2017-11-01T00:30:07.269Z,3.14
2017-11-01T00:30:11.206Z,3.15
2017-11-01T00:30:15.428Z,3.14
2017-11-01T00:30:19.518Z,3.14
2017-11-01T00:30:23.477Z,3.14
2017-11-01T00:30:27.831Z,3.15
2017-11-01T00:30:31.798Z,3.14
2017-11-01T00:30:35.877Z,3.15
2017-11-01T00:30:40.081Z,3.15
2017-11-01T00:30:44.312Z,3.15
2017-11-01T00:30:48.523Z,3.16
2017-11-01T00:30:52.620Z,3.15
2017-11-01T00:30:56.833Z,3.14
2017-11-01T00:31:00.784Z,3.16
2017-11-01T00:31:05.070Z,3.15
2017-11-01T00:31:09.288Z,3.16
2017-11-01T00:31:13.492Z,3.16
2017-11-01T00:31:17.305Z,3.16
2017-11-01T00:31:21.388Z,3.16
2017-11-01T00:31:25.326Z,3.17
2017-11-01T00:31:29.401Z,3.16
2017-11-01T00:31:33.484Z,3.16
2017-11-01T00:31:37.701Z,3.17
2017-11-01T00:31:41.913Z,3.16
2017-11-01T00:31:45.728Z,3.17
2017-11-01T00:31:49.807Z,3.17
2017-11-01T00:31:53.751Z,3.18
2017-11-01T00:31:57.968Z,3.17
2017-11-01T00:32:02.392Z,3.17
2017-11-01T00:32:06.491Z,3.18
2017-11-01T00:32:10.575Z,3.18
2017-11-01T00:32:14.979Z,3.18
2017-11-01T00:32:18.931Z,3.18
2017-11-01T00:32:23.148Z,3.18
2017-11-01T00:32:27.255Z,3.18
2017-11-01T00:32:31.341Z,3.18
2017-11-01T00:32:35.427Z,3.19
2017-11-01T00:32:39.239Z,3.18
2017-11-01T00:32:43.342Z,3.19
2017-11-01T00:32:47.282Z,3.18
2017-11-01T00:32:51.521Z,3.18
2017-11-01T00:32:55.472Z,3.19
2017-11-01T00:32:59.419Z,3.19
2017-11-01T00:33:03.781Z,3.18
2017-11-01T00:33:07.993Z,3.19
2017-11-01T00:33:12.329Z,3.19
2017-11-01T00:33:16.412Z,3.2
2017-11-01T00:33:20.630Z,3.19
2017-11-01T00:33:24.843Z,3.2
2017-11-01T00:33:28.658Z,3.2
2017-11-01T00:33:32.743Z,3.19
2017-11-01T00:33:36.949Z,3.19
2017-11-01T00:33:41.031Z,3.19
2017-11-01T00:33:45.241Z,3.2
2017-11-01T00:33:49.057Z,3.19
2017-11-01T00:33:53.134Z,3.19
2017-11-01T00:33:57.081Z,3.2
2017-11-01T00:34:01.424Z,3.2
2017-11-01T00:34:05.573Z,3.2
2017-11-01T00:34:09.652Z,3.2
2017-11-01T00:34:13.615Z,3.2
2017-11-01T00:34:17.812Z,3.2
2017-11-01T00:34:22.033Z,3.2
2017-11-01T00:34:25.843Z,3.21
2017-11-01T00:34:30.059Z,3.2
2017-11-01T00:34:34.010Z,3.2
2017-11-01T00:34:38.229Z,3.2
2017-11-01T00:34:42.045Z,3.2
2017-11-01T00:34:45.991Z,3.2
2017-11-01T00:34:50.238Z,3.2
2017-11-01T00:34:54.322Z,3.2
2017-11-01T00:34:58.139Z,3.2
2017-11-01T00:35:02.291Z,3.2
2017-11-01T00:35:06.498Z,3.21
2017-11-01T00:35:10.176Z,3.2
2017-11-01T00:35:14.530Z,3.2
2017-11-01T00:35:18.478Z,3.2
2017-11-01T00:35:22.946Z,3.2
2017-11-01T00:35:26.908Z,3.19
2017-11-01T00:35:30.980Z,3.2
2017-11-01T00:35:35.056Z,3.2
2017-11-01T00:35:39.570Z,3.2
2017-11-01T00:35:43.785Z,3.21
2017-11-01T00:35:47.991Z,3.2
2017-11-01T00:35:52.080Z,3.2
2017-11-01T00:35:56.023Z,3.21
2017-11-01T00:35:59.968Z,3.21
2017-11-01T00:36:04.314Z,3.21
2017-11-01T00:36:08.527Z,3.21
2017-11-01T00:36:12.474Z,3.21
2017-11-01T00:36:16.817Z,3.21
2017-11-01T00:36:20.896Z,3.21
2017-11-01T00:36:24.977Z,3.22
2017-11-01T00:36:29.059Z,3.21
2017-11-01T00:36:32.878Z,3.21
2017-11-01T00:36:36.564Z,3.2
2017-11-01T00:36:40.518Z,3.21
2017-11-01T00:36:44.470Z,3.21
2017-11-01T00:36:48.551Z,3.22
2017-11-01T00:36:52.894Z,3.22
2017-11-01T00:36:56.734Z,3.22
2017-11-01T00:37:00.548Z,3.22
2017-11-01T00:37:04.745Z,3.22
2017-11-01T00:37:08.688Z,3.22
2017-11-01T00:37:12.637Z,3.23
2017-11-01T00:37:16.582Z,3.23
2017-11-01T00:37:20.264Z,3.23
2017-11-01T00:37:24.205Z,3.23
2017-11-01T00:37:28.021Z,3.23
2017-11-01T00:37:31.974Z,3.22
2017-11-01T00:37:36.058Z,3.23
2017-11-01T00:37:40.021Z,3.23
2017-11-01T00:37:44.368Z,3.22
2017-11-01T00:37:48.187Z,3.24
2017-11-01T00:37:52.423Z,3.24
2017-11-01T00:37:56.649Z,3.23
2017-11-01T00:38:00.868Z,3.24
2017-11-01T00:38:05.436Z,3.23
2017-11-01T00:38:09.512Z,3.25
2017-11-01T00:38:13.332Z,3.24
2017-11-01T00:38:17.413Z,3.24
2017-11-01T00:38:21.628Z,3.24
2017-11-01T00:38:25.445Z,3.25
2017-11-01T00:38:29.559Z,3.25
2017-11-01T00:38:33.902Z,3.25
2017-11-01T00:38:37.721Z,3.25
2017-11-01T00:38:41.800Z,3.25
2017-11-01T00:38:45.878Z,3.25
2017-11-01T00:38:49.691Z,3.27
2017-11-01T00:38:53.776Z,3.26
2017-11-01T00:38:58.136Z,3.26
2017-11-01T00:39:02.338Z,3.26
2017-11-01T00:39:06.681Z,3.26
2017-11-01T00:39:10.893Z,3.26
2017-11-01T00:39:15.108Z,3.26
2017-11-01T00:39:19.058Z,3.26
2017-11-01T00:39:23.010Z,3.26
2017-11-01T00:39:27.083Z,3.27
2017-11-01T00:39:31.026Z,3.27
2017-11-01T00:39:34.846Z,3.27
2017-11-01T00:39:38.796Z,3.27
2017-11-01T00:39:42.876Z,3.27
2017-11-01T00:39:47.099Z,3.27
2017-11-01T00:39:50.790Z,3.28
2017-11-01T00:39:54.611Z,3.28
2017-11-01T00:39:58.701Z,3.27
2017-11-01T00:40:03.043Z,3.27
2017-11-01T00:40:06.854Z,3.28
2017-11-01T00:40:11.067Z,3.28
2017-11-01T00:40:15.280Z,3.28
2017-11-01T00:40:19.236Z,3.28
2017-11-01T00:40:23.593Z,3.28
2017-11-01T00:40:28.064Z,3.29
2017-11-01T00:40:31.891Z,3.29
2017-11-01T00:40:35.970Z,3.29
2017-11-01T00:40:39.786Z,3.29
2017-11-01T00:40:43.866Z,3.3
2017-11-01T00:40:47.810Z,3.3
2017-11-01T00:40:51.763Z,3.3
2017-11-01T00:40:56.104Z,3.3
2017-11-01T00:41:00.058Z,3.3
2017-11-01T00:41:04.521Z,3.3
2017-11-01T00:41:08.474Z,3.31
2017-11-01T00:41:12.284Z,3.31
2017-11-01T00:41:16.371Z,3.32
2017-11-01T00:41:20.340Z,3.32
2017-11-01T00:41:24.422Z,3.32
2017-11-01T00:41:28.635Z,3.33
2017-11-01T00:41:32.715Z,3.33
2017-11-01T00:41:36.667Z,3.33
2017-11-01T00:41:40.744Z,3.33
2017-11-01T00:41:44.696Z,3.34
2017-11-01T00:41:48.767Z,3.33
2017-11-01T00:41:52.849Z,3.33
2017-11-01T00:41:56.662Z,3.35
2017-11-01T00:42:00.746Z,3.34
2017-11-01T00:42:04.709Z,3.34
2017-11-01T00:42:08.664Z,3.35
2017-11-01T00:42:12.888Z,3.35
2017-11-01T00:42:16.832Z,3.36
2017-11-01T00:42:20.788Z,3.36
2017-11-01T00:42:24.880Z,3.35
2017-11-01T00:42:28.827Z,3.35
2017-11-01T00:42:32.647Z,3.36
2017-11-01T00:42:36.723Z,3.37
2017-11-01T00:42:40.808Z,3.37
2017-11-01T00:42:44.891Z,3.38
2017-11-01T00:42:48.834Z,3.37
2017-11-01T00:42:52.915Z,3.38
2017-11-01T00:42:57.004Z,3.38
2017-11-01T00:43:00.955Z,3.38
2017-11-01T00:43:05.338Z,3.38
2017-11-01T00:43:09.286Z,3.38
2017-11-01T00:43:13.237Z,3.39
2017-11-01T00:43:16.923Z,3.4
2017-11-01T00:43:21.262Z,3.39
2017-11-01T00:43:25.208Z,3.4
2017-11-01T00:43:29.281Z,3.4
2017-11-01T00:43:33.361Z,3.4
2017-11-01T00:43:37.587Z,3.41
2017-11-01T00:43:41.704Z,3.4
2017-11-01T00:43:45.786Z,3.41
2017-11-01T00:43:49.871Z,3.41
2017-11-01T00:43:54.107Z,3.42
2017-11-01T00:43:58.316Z,3.42
2017-11-01T00:44:02.521Z,3.42
2017-11-01T00:44:06.606Z,3.43
2017-11-01T00:44:10.973Z,3.43
2017-11-01T00:44:15.185Z,3.43
2017-11-01T00:44:19.269Z,3.44
2017-11-01T00:44:23.348Z,3.44
2017-11-01T00:44:27.167Z,3.44
2017-11-01T00:44:31.254Z,3.43
2017-11-01T00:44:35.601Z,3.44
2017-11-01T00:44:39.413Z,3.45
2017-11-01T00:44:43.229Z,3.44
2017-11-01T00:44:47.450Z,3.45
2017-11-01T00:44:51.401Z,3.45
2017-11-01T00:44:55.342Z,3.46
2017-11-01T00:44:59.558Z,3.46
2017-11-01T00:45:03.824Z,3.46
2017-11-01T00:45:07.900Z,3.46
2017-11-01T00:45:12.115Z,3.46
2017-11-01T00:45:16.199Z,3.46
2017-11-01T00:45:20.580Z,3.46
2017-11-01T00:45:24.661Z,3.47
2017-11-01T00:45:28.474Z,3.47
2017-11-01T00:45:32.689Z,3.47
2017-11-01T00:45:36.766Z,3.47
2017-11-01T00:45:40.846Z,3.47
2017-11-01T00:45:45.062Z,3.47
2017-11-01T00:45:49.419Z,3.47
2017-11-01T00:45:53.368Z,3.48
2017-11-01T00:45:57.185Z,3.48
2017-11-01T00:46:01.537Z,3.49
2017-11-01T00:46:05.444Z,3.49
2017-11-01T00:46:09.532Z,3.49
2017-11-01T00:46:13.628Z,3.49
2017-11-01T00:46:17.451Z,3.49
2017-11-01T00:46:21.525Z,3.5
2017-11-01T00:46:25.473Z,3.49
2017-11-01T00:46:29.548Z,3.5
2017-11-01T00:46:33.493Z,3.5
2017-11-01T00:46:37.702Z,3.5
2017-11-01T00:46:41.782Z,3.5
2017-11-01T00:46:45.991Z,3.5
2017-11-01T00:46:49.812Z,3.5
2017-11-01T00:46:53.624Z,3.5
2017-11-01T00:46:57.835Z,3.5
2017-11-01T00:47:01.986Z,3.51
2017-11-01T00:47:05.939Z,3.5
2017-11-01T00:47:10.015Z,3.5
2017-11-01T00:47:13.964Z,3.51
2017-11-01T00:47:17.776Z,3.5
2017-11-01T00:47:22.130Z,3.51
2017-11-01T00:47:25.957Z,3.5
2017-11-01T00:47:30.045Z,3.51
2017-11-01T00:47:33.991Z,3.51
2017-11-01T00:47:37.937Z,3.52
2017-11-01T00:47:41.751Z,3.51
2017-11-01T00:47:45.833Z,3.51
2017-11-01T00:47:49.910Z,3.51
2017-11-01T00:47:54.262Z,3.52
2017-11-01T00:47:58.213Z,3.51
2017-11-01T00:48:02.164Z,3.51
2017-11-01T00:48:06.245Z,3.52
2017-11-01T00:48:10.335Z,3.51
2017-11-01T00:48:14.024Z,3.5
2017-11-01T00:48:18.232Z,3.52
2017-11-01T00:48:22.176Z,3.51
2017-11-01T00:48:26.255Z,3.51
2017-11-01T00:48:30.197Z,3.51
2017-11-01T00:48:34.009Z,3.51
2017-11-01T00:48:37.825Z,3.51
2017-11-01T00:48:41.903Z,3.52
2017-11-01T00:48:46.124Z,3.51
2017-11-01T00:48:50.202Z,3.51
2017-11-01T00:48:54.280Z,3.52
2017-11-01T00:48:58.107Z,3.51
2017-11-01T00:49:02.837Z,3.52
2017-11-01T00:49:06.916Z,3.52
2017-11-01T00:49:11.003Z,3.51
2017-11-01T00:49:15.347Z,3.52
2017-11-01T00:49:19.298Z,3.51
2017-11-01T00:49:23.382Z,3.51
2017-11-01T00:49:27.216Z,3.52
2017-11-01T00:49:31.550Z,3.52
2017-11-01T00:49:35.369Z,3.52
2017-11-01T00:49:39.312Z,3.52
2017-11-01T00:49:43.644Z,3.51
2017-11-01T00:49:47.594Z,3.53
2017-11-01T00:49:51.673Z,3.52
2017-11-01T00:49:55.777Z,3.53
2017-11-01T00:49:59.995Z,3.51
2017-11-01T00:50:03.956Z,3.51
2017-11-01T00:50:08.304Z,3.52
2017-11-01T00:50:12.378Z,3.52
2017-11-01T00:50:16.462Z,3.52
2017-11-01T00:50:20.140Z,3.51
2017-11-01T00:50:24.089Z,3.51
2017-11-01T00:50:28.428Z,3.52
2017-11-01T00:50:32.251Z,3.51
2017-11-01T00:50:36.327Z,3.51
2017-11-01T00:50:40.279Z,3.51
2017-11-01T00:50:43.958Z,3.51
2017-11-01T00:50:47.902Z,3.52
2017-11-01T00:50:51.983Z,3.52
2017-11-01T00:50:56.062Z,3.52
2017-11-01T00:51:00.408Z,3.51
2017-11-01T00:51:04.479Z,3.51
2017-11-01T00:51:08.556Z,3.51
2017-11-01T00:51:12.768Z,3.52
2017-11-01T00:51:16.976Z,3.52
2017-11-01T00:51:20.657Z,3.52
2017-11-01T00:51:24.609Z,3.51
2017-11-01T00:51:28.896Z,3.51
2017-11-01T00:51:32.980Z,3.51
2017-11-01T00:51:37.225Z,3.51
2017-11-01T00:51:41.300Z,3.51
2017-11-01T00:51:45.377Z,3.51
2017-11-01T00:51:49.719Z,3.51
2017-11-01T00:51:53.933Z,3.5
2017-11-01T00:51:58.027Z,3.51
2017-11-01T00:52:02.109Z,3.51
2017-11-01T00:52:06.068Z,3.5
2017-11-01T00:52:09.889Z,3.51
2017-11-01T00:52:13.969Z,3.51
2017-11-01T00:52:18.046Z,3.5
2017-11-01T00:52:22.127Z,3.5
2017-11-01T00:52:26.206Z,3.5
2017-11-01T00:52:30.022Z,3.5
2017-11-01T00:52:33.971Z,3.5
2017-11-01T00:52:38.191Z,3.5
2017-11-01T00:52:42.270Z,3.5
2017-11-01T00:52:46.483Z,3.49
2017-11-01T00:52:50.567Z,3.49
2017-11-01T00:52:54.792Z,3.49
2017-11-01T00:52:58.607Z,3.48
2017-11-01T00:53:02.923Z,3.49
2017-11-01T00:53:06.999Z,3.48
2017-11-01T00:53:10.940Z,3.49
2017-11-01T00:53:15.023Z,3.49
2017-11-01T00:53:19.237Z,3.48
2017-11-01T00:53:23.052Z,3.49
2017-11-01T00:53:26.871Z,3.49
2017-11-01T00:53:30.950Z,3.48
2017-11-01T00:53:34.899Z,3.48
2017-11-01T00:53:38.583Z,3.48
2017-11-01T00:53:42.802Z,3.47
2017-11-01T00:53:46.625Z,3.48
2017-11-01T00:53:50.703Z,3.47
2017-11-01T00:53:55.066Z,3.47
2017-11-01T00:53:59.021Z,3.47
2017-11-01T00:54:03.353Z,3.47
2017-11-01T00:54:07.700Z,3.47
2017-11-01T00:54:11.776Z,3.47
2017-11-01T00:54:15.861Z,3.47
2017-11-01T00:54:19.818Z,3.46
2017-11-01T00:54:24.026Z,3.47
2017-11-01T00:54:27.971Z,3.47